Time;durP1;ratioP1;P1;durP2;ratioP2;P2;SDS_P1;SDS_P2;PMS_P1;PMS_P2;Temp;Humidity;BMP_temperature;BMP_pressure;BME280_temperature;BME280_humidity;BME280_pressure;Samples;Min_cycle;Max_cycle;Signal;HPM_P1;HPM_P2
2022/10/03 00:01:09;;;;;;;0.50;0.50;;;;;;;12.97;92.75;94540.78;5030440;28;20227;-61
2022/10/03 00:03:51;;;;;;;0.50;0.50;;;;;;;12.94;93.00;94521.47;5091763;28;20684;-60
2022/10/03 00:06:25;;;;;;;3.23;0.73;;;;;;;13.00;93.34;94508.13;5090178;28;20216;-61
2022/10/03 00:09:46;;;;;;;0.70;0.60;;;;;;;12.68;95.44;94472.16;5073247;28;20215;-62
2022/10/03 00:12:34;;;;;;;1.60;0.57;;;;;;;12.78;96.21;94461.84;4989675;28;20705;-59
2022/10/03 00:15:10;;;;;;;1.70;0.97;;;;;;;12.84;94.46;94479.94;5091192;28;20717;-59
2022/10/03 00:17:41;;;;;;;2.10;0.80;;;;;;;12.67;95.25;94462.88;5090981;28;20345;-62
2022/10/03 00:20:19;;;;;;;2.20;0.57;;;;;;;12.62;97.02;94437.81;5091065;28;20208;-60
2022/10/03 00:22:56;;;;;;;1.80;0.60;;;;;;;12.68;97.19;94439.75;5098566;22;20262;-62
2022/10/03 00:25:24;;;;;;;0.80;0.80;;;;;;;12.54;98.16;94421.66;5091186;28;20203;-59
2022/10/03 00:28:09;;;;;;;1.33;0.90;;;;;;;12.45;99.16;94404.69;5091034;28;20303;-62
2022/10/03 00:31:11;;;;;;;2.13;1.03;;;;;;;12.49;99.84;94401.69;5091139;28;20211;-59
2022/10/03 00:33:55;;;;;;;0.80;0.63;;;;;;;12.51;100.00;94388.78;5091089;28;20259;-59
2022/10/03 00:36:41;;;;;;;1.60;1.00;;;;;;;12.54;99.89;94408.91;5072650;28;20203;-61
2022/10/03 00:39:21;;;;;;;1.17;0.73;;;;;;;12.57;99.90;94414.50;5091038;28;20273;-59
2022/10/03 00:42:27;;;;;;;0.77;0.77;;;;;;;12.66;100.00;94405.97;5091139;28;20322;-60
2022/10/03 00:45:26;;;;;;;1.00;0.90;;;;;;;12.53;100.00;94407.28;5091001;28;20585;-59
2022/10/03 00:48:28;;;;;;;1.03;1.00;;;;;;;12.60;100.00;94428.72;5091033;28;20607;-60
2022/10/03 00:51:35;;;;;;;4.10;1.03;;;;;;;11.98;100.00;94409.19;5090985;28;20191;-62
2022/10/03 00:54:30;;;;;;;0.90;0.90;;;;;;;12.26;100.00;94413.28;5091022;28;20261;-63
2022/10/03 00:57:23;;;;;;;0.93;0.93;;;;;;;11.92;100.00;94416.63;5090936;28;20661;-63
2022/10/03 01:00:01;;;;;;;0.97;0.90;;;;;;;12.23;100.00;94425.53;5090923;28;20235;-60
2022/10/03 01:02:38;;;;;;;1.43;1.10;;;;;;;12.06;100.00;94419.47;5091446;28;20229;-62
2022/10/03 01:05:03;;;;;;;2.57;1.30;;;;;;;12.09;100.00;94421.75;5090738;28;20242;-62
2022/10/03 01:08:06;;;;;;;3.93;1.30;;;;;;;11.98;100.00;94411.75;5090776;28;20251;-58
2022/10/03 01:11:01;;;;;;;3.90;1.40;;;;;;;12.17;100.00;94408.25;5090363;28;20678;-60
2022/10/03 01:14:00;;;;;;;3.13;1.40;;;;;;;12.15;100.00;94412.69;5090773;28;20196;-61
2022/10/03 01:16:53;;;;;;;1.50;1.20;;;;;;;12.13;100.00;94415.41;5090757;28;20283;-59
2022/10/03 01:19:46;;;;;;;1.97;1.20;;;;;;;12.08;100.00;94402.28;5093866;28;20422;-60
2022/10/03 01:22:23;;;;;;;1.60;1.10;;;;;;;12.18;100.00;94404.78;5093920;28;20658;-60
2022/10/03 01:24:58;;;;;;;3.93;1.20;;;;;;;12.24;100.00;94410.06;5092758;28;20451;-62
2022/10/03 01:30:46;;;;;;;5.33;1.50;;;;;;;12.38;100.00;94411.34;5093293;28;20250;-62
2022/10/03 01:33:27;;;;;;;3.07;1.37;;;;;;;12.30;100.00;94401.06;5093217;28;20188;-61
2022/10/03 01:36:09;;;;;;;1.87;1.40;;;;;;;12.38;100.00;94394.25;5092290;28;20211;-61
2022/10/03 01:38:56;;;;;;;3.07;1.40;;;;;;;12.20;100.00;94379.97;5092902;28;20195;-62
2022/10/03 01:41:40;;;;;;;1.67;1.57;;;;;;;12.27;100.00;94391.16;5093863;28;20283;-60
2022/10/03 01:44:23;;;;;;;4.23;1.53;;;;;;;12.15;100.00;94385.47;5093202;28;20234;-61
2022/10/03 01:47:08;;;;;;;1.93;1.33;;;;;;;12.36;100.00;94392.84;5074459;28;20219;-62
2022/10/03 01:50:04;;;;;;;5.57;1.53;;;;;;;12.29;100.00;94395.16;5093571;28;20196;-62
2022/10/03 01:52:47;;;;;;;1.30;1.20;;;;;;;12.44;100.00;94410.75;5093867;28;20611;-60
2022/10/03 01:55:35;;;;;;;2.67;1.47;;;;;;;12.53;100.00;94422.59;5093500;28;20245;-60
2022/10/03 01:58:05;;;;;;;3.23;1.60;;;;;;;12.50;100.00;94408.38;5093438;28;20196;-61
2022/10/03 02:00:49;;;;;;;1.87;1.40;;;;;;;12.54;100.00;94406.38;5093506;28;20226;-62
2022/10/03 02:03:30;;;;;;;3.23;1.60;;;;;;;12.39;100.00;94395.06;5093501;28;20237;-61
2022/10/03 02:06:05;;;;;;;3.60;1.60;;;;;;;12.66;100.00;94416.16;5075243;28;20565;-62
2022/10/03 02:08:50;;;;;;;4.57;1.60;;;;;;;12.45;100.00;94400.41;5093412;28;20283;-61
2022/10/03 02:11:49;;;;;;;1.60;1.50;;;;;;;12.37;100.00;94386.78;5075082;28;20188;-62
2022/10/03 02:14:20;;;;;;;4.70;1.87;;;;;;;12.24;100.00;94373.63;5078290;28;20216;-60
2022/10/03 02:17:19;;;;;;;3.47;1.50;;;;;;;12.48;100.00;94386.56;5093238;28;20215;-59
2022/10/03 02:20:06;;;;;;;3.90;1.60;;;;;;;12.38;100.00;94380.75;5093304;28;20215;-59
2022/10/03 02:22:41;;;;;;;3.90;1.50;;;;;;;12.29;100.00;94368.88;5093297;28;20283;-60
2022/10/03 02:25:34;;;;;;;3.20;1.87;;;;;;;12.41;100.00;94394.00;5092822;28;20241;-60
2022/10/03 02:28:34;;;;;;;2.07;1.53;;;;;;;12.32;100.00;94388.97;5093370;28;20255;-62
2022/10/03 02:31:33;;;;;;;2.90;1.80;;;;;;;12.26;100.00;94371.72;5092410;28;20188;-59
2022/10/03 02:34:07;;;;;;;1.67;1.40;;;;;;;12.50;100.00;94379.56;5092864;28;20222;-61
2022/10/03 02:36:42;;;;;;;1.70;1.60;;;;;;;12.53;100.00;94376.69;5075022;28;20191;-60
2022/10/03 02:39:19;;;;;;;2.70;1.43;;;;;;;12.71;100.00;94380.00;5074509;28;20223;-61
2022/10/03 02:42:13;;;;;;;2.83;1.63;;;;;;;12.62;100.00;94375.81;5074387;28;20274;-61
2022/10/03 02:44:57;;;;;;;3.73;1.83;;;;;;;12.59;100.00;94378.66;5092984;28;20208;-59
2022/10/03 02:48:01;;;;;;;8.57;1.50;;;;;;;12.54;100.00;94385.97;5092542;28;20216;-60
2022/10/03 02:50:26;;;;;;;5.23;1.90;;;;;;;12.45;100.00;94376.63;5088458;28;20247;-61
2022/10/03 02:53:06;;;;;;;4.67;2.00;;;;;;;12.37;100.00;94371.47;5093043;28;20216;-62
2022/10/03 02:55:46;;;;;;;2.97;1.70;;;;;;;12.45;100.00;94374.91;5092462;28;20215;-61
2022/10/03 02:58:26;;;;;;;4.00;2.27;;;;;;;12.39;100.00;94389.97;5092448;28;20196;-61
2022/10/03 03:01:26;;;;;;;6.13;2.10;;;;;;;12.31;100.00;94387.34;5092526;28;20217;-60
2022/10/03 03:04:20;;;;;;;6.70;1.93;;;;;;;12.32;100.00;94381.34;5092391;28;20685;-62
2022/10/03 03:06:52;;;;;;;3.30;1.60;;;;;;;12.42;100.00;94392.25;5074755;28;20232;-62
2022/10/03 03:09:30;;;;;;;2.77;1.33;;;;;;;12.65;100.00;94409.47;5092290;28;20216;-60
2022/10/03 03:12:22;;;;;;;2.07;1.73;;;;;;;12.32;100.00;94376.22;5092397;28;20196;-62
2022/10/03 03:15:26;;;;;;;5.77;2.20;;;;;;;12.58;100.00;94398.25;5087224;28;20636;-61
2022/10/03 03:18:04;;;;;;;3.53;1.90;;;;;;;12.33;100.00;94382.91;5091249;28;20206;-62
2022/10/03 03:20:39;;;;;;;3.07;2.03;;;;;;;12.47;100.00;94398.50;5092129;28;20210;-61
2022/10/03 03:23:30;;;;;;;2.10;1.73;;;;;;;12.52;100.00;94395.50;5092423;28;20550;-63
2022/10/03 03:26:34;;;;;;;2.37;2.00;;;;;;;12.53;100.00;94382.59;5091975;28;20188;-61
2022/10/03 03:29:18;;;;;;;3.47;2.10;;;;;;;12.37;100.00;94372.28;5091841;28;20265;-60
2022/10/03 03:31:53;;;;;;;4.43;2.30;;;;;;;12.30;100.00;94375.59;5092133;28;20595;-60
2022/10/03 03:34:37;;;;;;;2.70;1.83;;;;;;;12.17;100.00;94358.09;5091945;28;20286;-59
2022/10/03 03:37:13;;;;;;;3.63;2.47;;;;;;;11.82;100.00;94367.50;5074185;28;20203;-60
2022/10/03 03:40:09;;;;;;;4.90;2.37;;;;;;;11.82;100.00;94363.19;5091943;28;20214;-60
2022/10/03 03:42:41;;;;;;;4.20;2.50;;;;;;;11.96;100.00;94361.91;5092209;28;20257;-63
2022/10/03 03:45:38;;;;;;;3.43;2.10;;;;;;;11.95;100.00;94358.56;5091533;28;20235;-62
2022/10/03 03:48:50;;;;;;;2.43;2.00;;;;;;;11.97;100.00;94348.22;5091951;28;20204;-62
2022/10/03 03:51:15;;;;;;;5.90;2.27;;;;;;;12.04;100.00;94354.34;5091624;28;20188;-60
2022/10/03 03:54:13;;;;;;;3.87;2.80;;;;;;;11.84;100.00;94356.19;5091384;28;20265;-62
2022/10/03 03:56:47;;;;;;;2.37;2.10;;;;;;;11.79;100.00;94346.47;5073549;28;20200;-62
2022/10/03 03:59:19;;;;;;;3.63;2.03;;;;;;;11.81;100.00;94346.31;5091708;28;20655;-63
2022/10/03 04:02:03;;;;;;;3.80;2.07;;;;;;;12.12;100.00;94349.31;5091821;28;20192;-60
2022/10/03 04:04:42;;;;;;;2.67;2.37;;;;;;;12.05;100.00;94344.00;5091749;28;20704;-63
2022/10/03 04:07:49;;;;;;;4.40;2.63;;;;;;;11.92;100.00;94347.84;5091568;28;20288;-62
2022/10/03 04:10:32;;;;;;;2.23;2.03;;;;;;;12.01;100.00;94340.13;5091441;28;20754;-63
2022/10/03 04:13:17;;;;;;;4.03;2.47;;;;;;;12.03;100.00;94345.06;5073304;28;20190;-60
2022/10/03 04:16:14;;;;;;;3.00;2.30;;;;;;;12.04;100.00;94351.78;5091184;28;20245;-62
2022/10/03 04:18:58;;;;;;;5.37;2.80;;;;;;;12.08;100.00;94348.78;5091277;28;20195;-59
2022/10/03 04:21:46;;;;;;;3.53;2.77;;;;;;;12.20;100.00;94357.03;5091445;28;20192;-59
2022/10/03 04:24:36;;;;;;;3.50;2.30;;;;;;;12.03;100.00;94345.06;5072938;28;20213;-61
2022/10/03 04:27:17;;;;;;;5.40;3.07;;;;;;;12.22;100.00;94345.72;5090911;28;20212;-60
2022/10/03 04:29:42;;;;;;;3.93;2.70;;;;;;;12.13;100.00;94338.97;5090985;28;20212;-60
2022/10/03 04:32:14;;;;;;;2.83;2.47;;;;;;;12.31;100.00;94361.88;5091134;28;20180;-61
2022/10/03 04:34:42;;;;;;;3.63;2.53;;;;;;;12.22;100.00;94355.91;5090999;28;20273;-63
2022/10/03 04:37:17;;;;;;;5.40;2.80;;;;;;;12.17;100.00;94347.91;5091159;28;20184;-61
2022/10/03 04:40:03;;;;;;;8.40;2.67;;;;;;;12.42;100.00;94369.31;5091002;28;20203;-60
2022/10/03 04:42:48;;;;;;;5.97;2.60;;;;;;;12.28;100.00;94352.00;5091191;28;20176;-59
2022/10/03 04:45:36;;;;;;;5.17;3.20;;;;;;;12.20;100.00;94336.63;5090372;28;20204;-59
2022/10/03 04:48:08;;;;;;;6.23;2.80;;;;;;;12.52;100.00;94354.72;5091595;28;20212;-61
2022/10/03 04:51:12;;;;;;;6.90;3.30;;;;;;;12.44;100.00;94352.13;5090672;28;20290;-60
2022/10/03 04:53:44;;;;;;;5.97;3.00;;;;;;;11.99;100.00;94341.22;5093267;28;20219;-60
2022/10/03 04:56:16;;;;;;;5.60;3.10;;;;;;;11.99;100.00;94344.56;5094359;28;20194;-60
2022/10/03 04:58:46;;;;;;;5.00;2.97;;;;;;;12.41;100.00;94352.41;5094397;28;20204;-61
2022/10/03 05:01:25;;;;;;;3.43;2.60;;;;;;;12.56;100.00;94361.91;5094206;28;20196;-62
2022/10/03 05:04:31;;;;;;;8.40;3.03;;;;;;;12.39;100.00;94355.09;5076565;28;20652;-59
2022/10/03 05:07:15;;;;;;;4.23;2.73;;;;;;;12.02;100.00;94348.59;5094528;28;20303;-62
2022/10/03 05:10:03;;;;;;;9.17;3.50;;;;;;;12.15;100.00;94337.06;5094280;28;20783;-62
2022/10/03 05:12:46;;;;;;;5.60;3.60;;;;;;;12.38;100.00;94352.69;5076426;28;20200;-59
2022/10/03 05:15:41;;;;;;;3.67;3.10;;;;;;;12.30;100.00;94355.19;5093968;28;20204;-60
2022/10/03 05:18:12;;;;;;;6.37;2.90;;;;;;;12.33;100.00;94372.72;5094381;28;20180;-60
2022/10/03 05:20:51;;;;;;;5.67;3.60;;;;;;;12.29;100.00;94368.88;5088098;22;20217;-60
2022/10/03 05:24:14;;;;;;;5.27;2.80;;;;;;;12.51;100.00;94365.84;5073740;28;20625;-59
2022/10/03 05:26:45;;;;;;;5.93;3.20;;;;;;;12.44;100.00;94365.63;4953490;29;20224;-60
2022/10/03 05:29:43;;;;;;;10.47;3.87;;;;;;;12.36;100.00;94365.56;5037645;28;20258;-62
2022/10/03 05:32:53;;;;;;;6.30;3.77;;;;;;;12.55;100.00;94360.31;5053419;28;20185;-60
2022/10/03 05:35:43;;;;;;;9.33;3.43;;;;;;;12.83;100.00;94334.66;5048958;28;20244;-59
2022/10/03 05:38:08;;;;;;;4.77;2.77;;;;;;;13.25;100.00;94405.25;5053484;28;20197;-60
2022/10/03 05:40:39;;;;;;;4.53;3.40;;;;;;;13.52;100.00;94330.19;5053316;28;20267;-59
2022/10/03 05:43:35;;;;;;;9.23;3.40;;;;;;;13.51;100.00;94392.47;5053250;28;20181;-59
2022/10/03 05:46:29;;;;;;;8.90;3.40;;;;;;;13.33;100.00;94364.44;5053386;28;20262;-59
2022/10/03 05:49:15;;;;;;;6.37;3.53;;;;;;;13.34;100.00;94386.47;5053171;28;20209;-60
2022/10/03 05:52:21;;;;;;;3.90;3.10;;;;;;;12.80;100.00;94324.75;5053336;28;20186;-61
2022/10/03 05:55:24;;;;;;;5.73;3.20;;;;;;;13.01;100.00;94348.94;4952913;28;20224;-62
2022/10/03 05:58:20;;;;;;;4.93;3.37;;;;;;;13.28;100.00;94388.84;5053294;28;20251;-62
2022/10/03 06:01:13;;;;;;;5.27;3.13;;;;;;;13.29;100.00;94385.34;5053462;28;20679;-62
2022/10/03 06:03:53;;;;;;;6.90;3.30;;;;;;;13.26;100.00;94377.97;5090834;22;20224;-63
2022/10/03 06:06:37;;;;;;;6.97;3.40;;;;;;;13.24;100.00;94370.47;5093056;28;20212;-63
2022/10/03 06:09:27;;;;;;;15.23;3.70;;;;;;;13.28;100.00;94368.41;5092975;28;20583;-62
2022/10/03 06:12:04;;;;;;;6.67;3.53;;;;;;;13.37;100.00;94370.06;5093057;28;20218;-61
2022/10/03 06:14:34;;;;;;;9.70;3.70;;;;;;;13.31;100.00;94371.44;5093040;28;20207;-63
2022/10/03 06:17:24;;;;;;;9.87;4.17;;;;;;;13.28;100.00;94379.44;5093311;28;20203;-62
2022/10/03 06:19:55;;;;;;;10.82;4.55;;;;;;;13.35;100.00;94395.72;5093210;28;20293;-63
2022/10/03 06:22:38;;;;;;;10.77;5.30;;;;;;;13.44;100.00;94401.66;5093312;28;20568;-60
2022/10/03 06:25:41;;;;;;;9.00;5.47;;;;;;;13.29;100.00;94419.31;5074413;28;20211;-60
2022/10/03 06:28:30;;;;;;;10.70;5.10;;;;;;;13.22;100.00;94415.78;5092977;28;20650;-61
2022/10/03 06:31:20;;;;;;;8.73;5.57;;;;;;;13.16;100.00;94415.56;5080337;28;20224;-61
2022/10/03 06:34:16;;;;;;;8.80;5.40;;;;;;;13.55;100.00;94419.28;5092667;28;20218;-62
2022/10/03 06:37:21;;;;;;;10.70;6.00;;;;;;;13.78;100.00;94432.28;5092872;28;20286;-62
2022/10/03 06:40:28;;;;;;;11.45;5.50;;;;;;;13.94;100.00;94412.69;5092849;28;20636;-62
2022/10/03 06:42:53;;;;;;;12.15;5.97;;;;;;;13.86;100.00;94451.00;5058447;28;20653;-63
2022/10/03 06:45:27;;;;;;;12.23;4.77;;;;;;;13.90;100.00;94470.19;5092634;28;20223;-63
2022/10/03 06:48:05;;;;;;;7.23;4.43;;;;;;;13.76;100.00;94467.41;5092861;28;20254;-62
2022/10/03 06:51:04;;;;;;;8.02;4.28;;;;;;;13.99;100.00;94460.78;5092076;28;20208;-64
2022/10/03 06:53:43;;;;;;;12.15;5.07;;;;;;;14.30;100.00;94477.22;5092603;28;20576;-59
2022/10/03 06:56:56;;;;;;;15.25;8.43;;;;;;;14.32;100.00;94471.94;5092238;28;20241;-61
2022/10/03 06:59:38;;;;;;;9.20;4.97;;;;;;;14.32;100.00;94451.50;5083264;28;20298;-63
2022/10/03 07:02:23;;;;;;;9.87;5.20;;;;;;;14.33;100.00;94464.09;5074183;28;20199;-62
2022/10/03 07:05:18;;;;;;;9.40;5.50;;;;;;;14.45;100.00;94479.94;5073971;28;20252;-62
2022/10/03 07:08:20;;;;;;;11.55;5.63;;;;;;;14.42;100.00;94485.38;5073952;28;20635;-64
2022/10/03 07:11:06;;;;;;;17.27;5.78;;;;;;;14.21;100.00;94478.94;5074006;28;20196;-62
2022/10/03 07:14:17;;;;;;;10.03;5.13;;;;;;;14.02;100.00;94470.69;5092193;28;20236;-62
2022/10/03 07:17:01;;;;;;;17.07;5.50;;;;;;;13.67;100.00;94455.56;5091563;28;20258;-62
2022/10/03 07:19:42;;;;;;;9.02;5.22;;;;;;;13.69;100.00;94474.09;5092235;28;20254;-60
2022/10/03 07:22:46;;;;;;;7.20;4.93;;;;;;;13.46;100.00;94473.81;5092434;28;20202;-60
2022/10/03 07:25:42;;;;;;;14.45;5.28;;;;;;;13.35;100.00;94474.09;5091906;28;20215;-61
2022/10/03 07:28:47;;;;;;;8.77;5.27;;;;;;;13.34;100.00;94457.97;5073841;28;20220;-62
2022/10/03 07:31:37;;;;;;;12.17;6.43;;;;;;;13.43;100.00;94453.72;5054015;28;20298;-62
2022/10/03 07:34:15;;;;;;;9.20;5.43;;;;;;;13.38;100.00;94450.78;5073674;28;20223;-62
2022/10/03 07:39:46;;;;;;;8.80;5.60;;;;;;;13.18;100.00;94445.09;5091837;28;20656;-62
2022/10/03 07:43:02;;;;;;;11.68;6.30;;;;;;;13.18;100.00;94465.53;5073445;28;20202;-60
2022/10/03 07:45:33;;;;;;;8.73;6.20;;;;;;;12.96;100.00;94465.97;5063955;28;20219;-64
2022/10/03 07:48:14;;;;;;;10.47;6.40;;;;;;;13.16;100.00;94477.63;5073220;28;20227;-62
2022/10/03 07:50:52;;;;;;;9.23;6.50;;;;;;;12.97;100.00;94465.03;5091384;28;20279;-62
2022/10/03 07:53:48;;;;;;;12.47;6.40;;;;;;;12.85;100.00;94468.75;5091859;28;20203;-59
2022/10/03 07:56:19;;;;;;;12.77;5.80;;;;;;;12.75;100.00;94462.13;5091381;28;20682;-58
2022/10/03 07:59:29;;;;;;;9.13;5.60;;;;;;;12.48;100.00;94458.72;5091178;28;20208;-60
2022/10/03 08:01:57;;;;;;;8.83;5.37;;;;;;;12.62;100.00;94462.53;5090624;28;20230;-63
2022/10/03 08:05:07;;;;;;;13.50;6.03;;;;;;;12.66;100.00;94463.84;5091545;28;20215;-59
2022/10/03 08:07:54;;;;;;;10.33;6.50;;;;;;;12.68;100.00;94472.16;5091497;28;20220;-60
2022/10/03 08:10:53;;;;;;;32.63;29.53;;;;;;;12.90;100.00;94460.66;5073105;28;20212;-63
2022/10/03 08:13:37;;;;;;;14.30;7.90;;;;;;;13.14;100.00;94469.31;5073220;28;20231;-59
2022/10/03 08:16:19;;;;;;;10.70;7.43;;;;;;;13.23;100.00;94467.63;5091352;28;20245;-61
2022/10/03 08:19:00;;;;;;;14.60;6.20;;;;;;;13.22;100.00;94469.38;5091322;28;20624;-61
2022/10/03 08:21:53;;;;;;;9.17;5.70;;;;;;;12.96;100.00;94471.09;5072818;28;20739;-62
2022/10/03 08:24:33;;;;;;;11.13;6.77;;;;;;;12.99;100.00;94475.88;5091221;28;20216;-59
2022/10/03 08:27:30;;;;;;;11.57;6.80;;;;;;;12.94;100.00;94472.97;5090087;28;20215;-61
2022/10/03 08:30:21;;;;;;;14.17;6.93;;;;;;;12.98;100.00;94469.19;5072241;28;20216;-62
2022/10/03 08:32:55;;;;;;;13.17;6.77;;;;;;;13.07;100.00;94478.50;5090885;28;20683;-59
2022/10/03 08:35:38;;;;;;;6.50;3.53;;;;;;;12.99;100.00;94473.31;5090835;28;20252;-61
2022/10/03 08:38:15;;;;;;;9.40;4.37;;;;;;;13.09;100.00;94481.72;5091150;28;20200;-59
2022/10/03 08:41:04;;;;;;;5.37;3.23;;;;;;;13.04;100.00;94472.91;5090978;28;20210;-60
2022/10/03 08:43:52;;;;;;;12.33;3.07;;;;;;;13.11;100.00;94474.72;5090890;28;20226;-61
2022/10/03 08:46:36;;;;;;;4.20;2.90;;;;;;;13.17;100.00;94473.34;5090713;28;20199;-61
2022/10/03 08:49:13;;;;;;;4.20;2.97;;;;;;;13.29;100.00;94482.34;5090663;28;20207;-59
2022/10/03 08:51:49;;;;;;;4.27;2.33;;;;;;;13.38;100.00;94486.53;5090880;28;20660;-62
2022/10/03 08:54:45;;;;;;;4.93;2.17;;;;;;;13.33;100.00;94478.53;5090941;28;20562;-61
2022/10/03 08:57:31;;;;;;;5.53;2.37;;;;;;;13.56;100.00;94486.47;5090995;28;20200;-62
2022/10/03 09:00:21;;;;;;;6.90;2.50;;;;;;;13.60;100.00;94485.22;5098612;22;20227;-62
2022/10/03 09:02:46;;;;;;;7.88;5.03;;;;;;;13.89;100.00;94488.22;5090828;28;20216;-60
2022/10/03 09:05:30;;;;;;;5.77;1.90;;;;;;;14.11;100.00;94506.38;5090675;28;20720;-62
2022/10/03 09:08:14;;;;;;;3.00;2.30;;;;;;;14.27;100.00;94514.09;5090757;28;20208;-60
2022/10/03 09:10:51;;;;;;;3.60;2.03;;;;;;;14.43;100.00;94497.22;5090726;28;20219;-62
2022/10/03 09:13:26;;;;;;;3.97;1.93;;;;;;;14.24;100.00;94505.94;5090748;28;20184;-64
2022/10/03 09:16:08;;;;;;;5.63;2.45;;;;;;;14.35;100.00;94504.84;5090711;28;20261;-60
2022/10/03 09:18:53;;;;;;;4.67;2.57;;;;;;;14.38;100.00;94510.50;5090734;28;20188;-60
2022/10/03 09:21:46;;;;;;;8.10;2.95;;;;;;;14.48;100.00;94529.06;5090552;28;20198;-62
2022/10/03 09:24:48;;;;;;;4.60;2.33;;;;;;;14.74;100.00;94519.50;5090946;28;20247;-64
2022/10/03 09:27:35;;;;;;;6.25;2.25;;;;;;;14.80;100.00;94534.22;5090392;28;20223;-61
2022/10/03 09:30:09;;;;;;;3.63;2.40;;;;;;;14.42;100.00;94506.66;5090042;28;20305;-63
2022/10/03 09:32:54;;;;;;;2.23;2.03;;;;;;;14.27;100.00;94497.94;5071726;28;20187;-63
2022/10/03 09:35:28;;;;;;;6.13;2.23;;;;;;;14.17;100.00;94492.97;5090328;28;20207;-63
2022/10/03 09:38:21;;;;;;;2.20;2.00;;;;;;;14.24;100.00;94472.69;5071732;28;20661;-64
2022/10/03 09:41:11;;;;;;;4.17;2.37;;;;;;;14.33;100.00;94469.22;5093646;28;20192;-62
2022/10/03 09:43:42;;;;;;;4.47;1.90;;;;;;;14.48;100.00;94498.34;5075241;28;20287;-60
2022/10/03 09:46:29;;;;;;;1.90;1.63;;;;;;;14.57;100.00;94506.81;5092689;28;20188;-61
2022/10/03 09:49:22;;;;;;;2.42;1.70;;;;;;;15.00;100.00;94529.59;5093184;28;20220;-60
2022/10/03 09:51:54;;;;;;;3.78;1.75;;;;;;;14.83;100.00;94538.22;5075068;28;20188;-60
2022/10/03 09:54:28;;;;;;;6.00;1.60;;;;;;;14.65;100.00;94547.78;5093613;28;20212;-60
2022/10/03 09:57:13;;;;;;;3.28;1.80;;;;;;;14.66;100.00;94532.28;5093142;28;20664;-59
2022/10/03 10:00:10;;;;;;;1.70;1.60;;;;;;;14.78;100.00;94564.28;5093432;28;20754;-59
2022/10/03 10:03:26;;;;;;;2.77;1.70;;;;;;;14.66;100.00;94578.34;5093143;28;20215;-61
2022/10/03 10:06:20;;;;;;;3.35;1.73;;;;;;;14.58;100.00;94586.00;5048747;28;20237;-60
2022/10/03 10:08:47;;;;;;;2.10;1.83;;;;;;;14.59;100.00;94592.69;5093246;28;20263;-63
2022/10/03 10:11:31;;;;;;;4.03;1.95;;;;;;;14.82;100.00;94572.44;5093438;28;20184;-60
2022/10/03 10:14:11;;;;;;;3.07;1.90;;;;;;;14.87;100.00;94591.50;5093368;28;20212;-59
2022/10/03 10:17:15;;;;;;;1.88;1.55;;;;;;;14.87;100.00;94626.53;5093372;28;20192;-62
2022/10/03 10:20:16;;;;;;;1.23;1.17;;;;;;;14.86;100.00;94622.38;5071409;22;20831;-62
2022/10/03 10:22:47;;;;;;;2.17;1.73;;;;;;;14.87;100.00;94613.72;5093344;28;20232;-62
2022/10/03 10:25:23;;;;;;;2.23;1.63;;;;;;;15.02;100.00;94623.22;5093467;28;20216;-61
2022/10/03 10:28:21;;;;;;;1.73;1.63;;;;;;;14.88;100.00;94649.41;5092935;28;20649;-60
2022/10/03 10:31:27;;;;;;;7.05;1.70;;;;;;;15.01;100.00;94636.16;5052268;28;20215;-60
2022/10/03 10:34:43;;;;;;;2.13;1.60;;;;;;;15.15;100.00;94651.72;5041274;28;20255;-63
2022/10/03 10:37:33;;;;;;;1.73;1.23;;;;;;;15.15;100.00;94684.19;5050112;28;20219;-62
2022/10/03 10:40:17;;;;;;;1.50;1.00;;;;;;;15.31;100.00;94691.13;5074310;28;20220;-63
2022/10/03 10:43:20;;;;;;;2.38;1.08;;;;;;;15.17;100.00;94709.66;5092316;28;20195;-62
2022/10/03 10:45:51;;;;;;;1.10;1.10;;;;;;;15.27;100.00;94703.41;5092451;28;20248;-62
2022/10/03 10:48:55;;;;;;;1.30;1.10;;;;;;;15.24;100.00;94697.81;5092321;28;20215;-62
2022/10/03 10:51:45;;;;;;;1.40;1.05;;;;;;;15.28;100.00;94681.19;5090559;28;20588;-60
2022/10/03 10:54:39;;;;;;;1.67;1.05;;;;;;;15.47;100.00;94738.09;5073981;28;20217;-61
2022/10/03 10:57:22;;;;;;;0.55;0.55;;;;;;;15.62;100.00;94710.09;5092118;28;20199;-62
2022/10/03 11:00:13;;;;;;;1.13;1.08;;;;;;;15.72;100.00;94737.16;5091877;28;20237;-62
2022/10/03 11:02:45;;;;;;;2.80;1.15;;;;;;;16.25;100.00;94775.19;5092130;28;20188;-63
2022/10/03 11:05:34;;;;;;;1.88;1.00;;;;;;;16.83;100.00;94798.06;5091915;28;20208;-63
2022/10/03 11:08:14;;;;;;;1.77;0.95;;;;;;;17.27;97.12;94854.97;5043134;28;20231;-63
2022/10/03 11:11:17;;;;;;;2.97;0.80;;;;;;;17.07;98.92;94786.94;5091917;28;20220;-60
2022/10/03 11:14:20;;;;;;;2.10;1.05;;;;;;;17.69;96.04;94826.38;5092510;28;20220;-61
2022/10/03 11:16:54;;;;;;;1.10;1.08;;;;;;;17.32;98.38;94771.25;5092111;28;20176;-59
2022/10/03 11:19:40;;;;;;;1.25;1.10;;;;;;;17.04;99.24;94749.53;5092500;28;20211;-60
2022/10/03 11:22:22;;;;;;;2.05;1.00;;;;;;;16.59;100.00;94695.44;5092088;28;20311;-61
2022/10/03 11:25:18;;;;;;;1.30;1.20;;;;;;;16.56;100.00;94711.19;5092278;28;20223;-62
2022/10/03 11:28:05;;;;;;;1.13;1.05;;;;;;;15.98;100.00;94642.13;5091926;28;20207;-61
2022/10/03 11:30:37;;;;;;;1.15;1.13;;;;;;;15.79;100.00;94620.22;5091868;28;20265;-61
2022/10/03 11:33:21;;;;;;;5.63;2.17;;;;;;;16.12;100.00;94627.88;5073685;28;20200;-61
2022/10/03 11:36:08;;;;;;;3.20;1.90;;;;;;;15.94;100.00;94644.22;5091832;28;20176;-63
2022/10/03 11:38:46;;;;;;;3.13;2.00;;;;;;;15.65;100.00;94627.78;5073805;28;20232;-60
2022/10/03 11:41:23;;;;;;;1.85;1.70;;;;;;;15.92;100.00;94686.38;5091834;28;20187;-60
2022/10/03 11:44:11;;;;;;;2.50;2.10;;;;;;;15.81;100.00;94718.28;5091700;28;20211;-62
2022/10/03 11:47:16;;;;;;;3.17;2.42;;;;;;;15.76;100.00;94676.13;5091531;28;20247;-60
2022/10/03 11:50:19;;;;;;;2.85;2.55;;;;;;;15.83;100.00;94716.38;5091759;28;20207;-61
2022/10/03 11:52:57;;;;;;;2.63;2.27;;;;;;;16.15;100.00;94691.66;5091830;28;20203;-60
2022/10/03 11:55:50;;;;;;;2.25;2.05;;;;;;;16.06;100.00;94698.53;5073026;28;20358;-62
2022/10/03 11:58:30;;;;;;;2.28;2.03;;;;;;;15.90;100.00;94696.78;5091342;28;20176;-63
2022/10/03 12:01:33;;;;;;;2.67;2.40;;;;;;;15.79;100.00;94645.88;5091485;28;20646;-62
2022/10/03 12:04:26;;;;;;;3.05;2.30;;;;;;;15.76;100.00;94642.81;5091848;28;20211;-60
2022/10/03 12:10:02;;;;;;;2.50;2.30;;;;;;;15.90;100.00;94666.03;5091231;28;20218;-59
2022/10/03 12:12:42;;;;;;;2.75;2.55;;;;;;;15.54;100.00;94680.13;5073318;28;20237;-61
2022/10/03 12:15:40;;;;;;;5.40;2.80;;;;;;;15.54;100.00;94646.00;5091614;28;20704;-61
2022/10/03 12:18:44;;;;;;;2.80;2.42;;;;;;;15.67;100.00;94656.59;5090497;28;20215;-63
2022/10/03 12:21:34;;;;;;;7.80;2.88;;;;;;;16.03;100.00;94680.13;5088084;28;20290;-60
2022/10/03 12:24:32;;;;;;;3.22;2.92;;;;;;;16.30;99.65;94713.13;5091099;28;20215;-60
2022/10/03 12:27:25;;;;;;;3.55;2.85;;;;;;;17.00;96.10;94791.94;5090337;28;20289;-62
2022/10/03 12:30:01;;;;;;;2.58;2.20;;;;;;;16.94;94.20;94832.88;5091305;28;20216;-60
2022/10/03 12:32:42;;;;;;;3.28;2.28;;;;;;;17.47;91.80;94856.16;5091274;28;20183;-60
2022/10/03 12:35:13;;;;;;;2.83;2.63;;;;;;;17.32;90.92;94853.47;5072985;28;20268;-62
2022/10/03 12:37:56;;;;;;;3.03;2.55;;;;;;;17.58;90.33;94859.19;5091167;28;20173;-61
2022/10/03 12:40:35;;;;;;;2.65;2.40;;;;;;;17.39;77.53;94935.88;5090942;28;20269;-63
2022/10/03 12:43:15;;;;;;;2.03;1.90;;;;;;;17.39;75.00;94905.03;5091057;28;20570;-63
2022/10/03 12:45:53;;;;;;;2.45;2.28;;;;;;;17.77;72.48;94949.78;5090610;28;20591;-69
2022/10/03 12:48:31;;;;;;;3.85;2.50;;;;;;;17.56;67.58;94920.28;5090513;28;20697;-62
2022/10/03 12:51:13;;;;;;;3.17;2.53;;;;;;;18.01;65.64;94935.06;5098275;22;20680;-61
2022/10/03 12:54:25;;;;;;;3.05;2.30;;;;;;;17.65;66.32;94904.81;5090704;28;20568;-59
2022/10/03 12:57:24;;;;;;;2.38;2.28;;;;;;;17.93;66.00;94901.66;5072162;28;20699;-60
2022/10/03 13:00:00;;;;;;;2.40;2.20;;;;;;;17.71;65.79;94911.88;5090361;28;20192;-61
2022/10/03 13:02:35;;;;;;;2.85;2.60;;;;;;;17.65;66.10;94905.63;5090536;28;20266;-60